createdAt,value
2019-05-30T00:00:50.535Z,88.56
2019-05-30T00:03:21.311Z,88.01
2019-05-30T00:05:52.603Z,87.61
2019-05-30T00:08:24.127Z,88.09
2019-05-30T00:10:56.419Z,88.25
2019-05-30T00:13:27.068Z,88.38
2019-05-30T00:15:59.318Z,88.64
2019-05-30T00:18:43.138Z,88.53
2019-05-30T00:21:13.574Z,89.00
2019-05-30T00:23:43.995Z,88.86
2019-05-30T00:26:14.732Z,89.18
2019-05-30T00:28:45.175Z,88.87
2019-05-30T00:31:17.898Z,89.61
2019-05-30T00:33:48.373Z,89.30
2019-05-30T00:36:18.771Z,89.20
2019-05-30T00:38:49.138Z,87.98
2019-05-30T00:41:19.535Z,88.70
2019-05-30T00:43:50.645Z,88.94
2019-05-30T00:46:21.127Z,87.70
2019-05-30T00:48:53.029Z,87.70
2019-05-30T00:51:23.723Z,87.99
2019-05-30T00:53:58.594Z,88.69
2019-05-30T00:56:29.063Z,89.00
2019-05-30T00:59:00.915Z,88.47
2019-05-30T01:01:34.609Z,88.63
2019-05-30T01:04:10.407Z,88.67
2019-05-30T01:06:41.850Z,88.53
2019-05-30T01:09:12.254Z,88.85
2019-05-30T01:11:48.666Z,89.03
2019-05-30T01:14:19.072Z,88.78
2019-05-30T01:16:49.636Z,88.72
2019-05-30T01:19:20.059Z,88.76
2019-05-30T01:21:51.561Z,88.65
2019-05-30T01:24:22.114Z,88.53
2019-05-30T01:26:53.000Z,87.92
2019-05-30T01:29:23.649Z,87.97
2019-05-30T01:31:54.092Z,88.50
2019-05-30T01:34:24.589Z,88.71
2019-05-30T01:36:55.054Z,88.27
2019-05-30T01:39:25.818Z,88.17
2019-05-30T01:41:57.650Z,88.63
2019-05-30T01:44:28.300Z,88.81
2019-05-30T01:47:00.086Z,89.19
2019-05-30T01:49:31.761Z,89.17
2019-05-30T01:52:02.446Z,89.16
2019-05-30T01:54:33.422Z,88.62
2019-05-30T01:57:04.691Z,88.85
2019-05-30T01:59:35.150Z,88.90
2019-05-30T02:02:07.079Z,89.34
2019-05-30T02:04:41.086Z,88.45
2019-05-30T02:07:12.022Z,88.72
2019-05-30T02:09:42.449Z,88.51
2019-05-30T02:12:12.898Z,89.45
2019-05-30T02:14:43.269Z,89.16
2019-05-30T02:17:13.939Z,89.77
2019-05-30T02:19:44.362Z,89.45
2019-05-30T02:22:15.128Z,89.46
2019-05-30T02:24:47.137Z,89.22
2019-05-30T02:27:17.849Z,89.68
2019-05-30T02:29:49.332Z,89.92
2019-05-30T02:32:19.790Z,89.99
2019-05-30T02:34:51.664Z,90.05
2019-05-30T02:37:22.066Z,89.76
2019-05-30T02:39:54.564Z,89.55
2019-05-30T02:42:24.979Z,89.59
2019-05-30T02:44:55.440Z,89.64
2019-05-30T02:47:25.915Z,89.69
2019-05-30T02:49:56.841Z,89.70
2019-05-30T02:52:27.272Z,89.24
2019-05-30T02:54:57.679Z,89.39
2019-05-30T02:57:28.109Z,89.54
2019-05-30T02:59:58.488Z,89.74
2019-05-30T03:02:28.941Z,89.68
2019-05-30T03:04:59.317Z,89.79
2019-05-30T03:07:29.748Z,89.67
2019-05-30T03:10:02.709Z,89.39
2019-05-30T03:12:33.778Z,89.72
2019-05-30T03:15:06.398Z,90.10
2019-05-30T03:17:36.687Z,90.33
2019-05-30T03:20:17.664Z,90.63
2019-05-30T03:22:39.223Z,90.70
2019-05-30T03:25:11.049Z,90.99
2019-05-30T03:27:41.890Z,91.09
2019-05-30T03:30:27.447Z,91.22
2019-05-30T03:33:19.103Z,90.85
2019-05-30T03:35:30.316Z,90.58
2019-05-30T03:37:57.255Z,90.73
2019-05-30T03:40:29.644Z,91.06
2019-05-30T03:43:15.978Z,91.62
2019-05-30T03:45:46.826Z,91.09
2019-05-30T03:48:17.396Z,91.15
2019-05-30T03:50:51.034Z,91.58
2019-05-30T03:53:21.493Z,92.26
2019-05-30T03:55:57.550Z,92.24
2019-05-30T03:58:59.833Z,92.27
2019-05-30T04:01:54.903Z,92.66
2019-05-30T04:04:29.738Z,92.76
2019-05-30T04:07:11.978Z,92.30
2019-05-30T04:09:44.095Z,92.13
2019-05-30T04:12:40.084Z,92.27
2019-05-30T04:15:18.557Z,92.59
2019-05-30T04:17:50.011Z,92.29
2019-05-30T04:20:22.848Z,91.69
2019-05-30T04:22:52.505Z,92.15
2019-05-30T04:25:23.212Z,92.65
2019-05-30T04:27:53.673Z,92.83
2019-05-30T04:30:24.087Z,92.37
2019-05-30T04:32:54.567Z,91.82
2019-05-30T04:35:24.985Z,91.94
2019-05-30T04:37:55.379Z,91.69
2019-05-30T04:40:26.160Z,91.89
2019-05-30T04:42:56.558Z,91.70
2019-05-30T04:45:28.187Z,92.37
2019-05-30T04:47:59.187Z,92.22
2019-05-30T04:50:29.587Z,92.09
2019-05-30T04:53:00.486Z,91.51
2019-05-30T04:55:30.885Z,91.27
2019-05-30T04:58:01.295Z,90.47
2019-05-30T05:00:31.780Z,90.83
2019-05-30T05:03:02.269Z,90.79
2019-05-30T05:05:33.029Z,91.84
2019-05-30T05:08:03.905Z,90.42
2019-05-30T05:10:34.317Z,90.46
2019-05-30T05:13:04.890Z,91.64
2019-05-30T05:15:35.305Z,89.58
2019-05-30T05:18:05.672Z,89.62
2019-05-30T05:20:36.555Z,89.56
2019-05-30T05:23:06.956Z,89.27
2019-05-30T05:25:37.690Z,88.66
2019-05-30T05:28:08.061Z,88.49
2019-05-30T05:30:38.501Z,88.26
2019-05-30T05:33:08.950Z,86.05
2019-05-30T05:35:41.776Z,85.67
2019-05-30T05:38:12.203Z,83.90
2019-05-30T05:40:42.676Z,82.13
2019-05-30T05:43:13.124Z,82.42
2019-05-30T05:45:43.509Z,84.28
2019-05-30T05:48:14.232Z,80.74
2019-05-30T05:50:44.673Z,82.47
2019-05-30T05:53:15.102Z,82.57
2019-05-30T05:55:45.582Z,80.89
2019-05-30T05:58:19.207Z,78.57
2019-05-30T06:00:51.270Z,81.25
2019-05-30T06:03:24.150Z,77.61
2019-05-30T06:05:57.877Z,75.50
2019-05-30T06:08:28.334Z,74.84
2019-05-30T06:10:59.099Z,72.19
2019-05-30T06:13:30.750Z,74.92
2019-05-30T06:16:02.866Z,77.43
2019-05-30T06:18:33.297Z,76.26
2019-05-30T06:21:03.662Z,70.08
2019-05-30T06:23:34.322Z,64.80
2019-05-30T06:26:04.744Z,63.06
2019-05-30T06:28:35.366Z,63.18
2019-05-30T06:31:06.666Z,58.58
2019-05-30T06:33:37.093Z,61.60
2019-05-30T06:36:07.551Z,58.80
2019-05-30T06:38:38.306Z,54.68
2019-05-30T06:41:08.755Z,54.13
2019-05-30T06:43:39.173Z,54.45
2019-05-30T06:46:11.030Z,54.70
2019-05-30T06:48:43.786Z,53.51
2019-05-30T06:51:14.924Z,52.55
2019-05-30T06:53:45.297Z,51.90
2019-05-30T06:56:16.131Z,51.35
2019-05-30T06:58:48.992Z,52.55
2019-05-30T07:01:20.009Z,50.82
2019-05-30T07:03:52.236Z,49.89
2019-05-30T07:06:23.875Z,54.36
2019-05-30T07:08:55.605Z,47.19
2019-05-30T07:11:29.299Z,51.03
2019-05-30T07:14:03.162Z,50.92
2019-05-30T07:16:35.257Z,48.58
2019-05-30T07:19:05.671Z,46.12
2019-05-30T07:21:36.150Z,46.13
2019-05-30T07:24:08.995Z,47.13
2019-05-30T07:26:39.602Z,47.25
2019-05-30T07:29:10.165Z,45.56
2019-05-30T07:31:44.190Z,46.38
2019-05-30T07:34:14.669Z,46.76
2019-05-30T07:36:45.137Z,47.76
2019-05-30T07:39:15.652Z,45.60
2019-05-30T07:42:05.167Z,46.86
2019-05-30T07:44:26.667Z,46.74
2019-05-30T07:46:57.178Z,44.86
2019-05-30T07:49:28.263Z,44.93
2019-05-30T07:51:59.367Z,44.71
2019-05-30T07:54:30.981Z,43.17
2019-05-30T07:57:01.652Z,43.06
2019-05-30T07:59:34.708Z,44.51
2019-05-30T08:02:05.289Z,43.44
2019-05-30T08:04:35.809Z,44.02
2019-05-30T08:07:06.293Z,43.89
2019-05-30T08:09:36.717Z,43.31
2019-05-30T08:12:07.183Z,42.03
2019-05-30T08:14:38.155Z,42.08
2019-05-30T08:17:12.880Z,40.94
2019-05-30T08:19:43.348Z,40.43
2019-05-30T08:22:14.314Z,41.54
2019-05-30T08:24:47.590Z,41.79
2019-05-30T08:27:18.822Z,42.49
2019-05-30T08:29:49.191Z,40.46
2019-05-30T08:32:28.345Z,41.23
2019-05-30T08:35:00.329Z,42.31
2019-05-30T08:37:35.070Z,39.78
2019-05-30T08:40:10.116Z,44.13
2019-05-30T08:42:42.509Z,42.00
2019-05-30T08:45:31.625Z,42.47
2019-05-30T08:48:05.169Z,38.83
2019-05-30T08:50:54.643Z,40.91
2019-05-30T08:53:25.539Z,42.56
2019-05-30T08:56:24.120Z,39.67
2019-05-30T08:59:28.890Z,39.39
2019-05-30T09:02:03.683Z,40.21
2019-05-30T09:05:06.133Z,40.92
2019-05-30T09:07:49.833Z,37.35
2019-05-30T09:10:20.275Z,36.05
2019-05-30T09:12:55.172Z,35.68
2019-05-30T09:15:26.282Z,37.91
2019-05-30T09:17:56.939Z,37.13
2019-05-30T09:20:30.763Z,36.11
2019-05-30T09:23:00.253Z,36.41
2019-05-30T09:25:30.779Z,35.70
2019-05-30T09:28:01.308Z,33.76
2019-05-30T09:30:31.905Z,32.31
2019-05-30T09:33:02.817Z,36.09
2019-05-30T09:35:33.205Z,33.64
2019-05-30T09:38:04.091Z,32.03
2019-05-30T09:40:35.961Z,36.22
2019-05-30T09:43:06.716Z,33.62
2019-05-30T09:45:46.019Z,34.47
2019-05-30T09:48:19.413Z,33.14
2019-05-30T09:50:51.123Z,33.19
2019-05-30T09:53:21.604Z,32.52
2019-05-30T09:55:55.098Z,30.89
2019-05-30T09:58:26.120Z,30.39
2019-05-30T10:00:56.756Z,30.82
2019-05-30T10:03:27.298Z,31.73
2019-05-30T10:06:00.020Z,29.09
2019-05-30T10:08:34.853Z,32.84
2019-05-30T10:11:05.274Z,33.92
2019-05-30T10:13:37.119Z,30.57
2019-05-30T10:16:08.457Z,33.14
2019-05-30T10:18:39.370Z,30.57
2019-05-30T10:21:10.137Z,31.80
2019-05-30T10:23:40.612Z,30.95
2019-05-30T10:26:11.468Z,32.07
2019-05-30T10:28:54.438Z,29.27
2019-05-30T10:31:25.151Z,29.83
2019-05-30T10:33:56.920Z,28.26
2019-05-30T10:36:43.423Z,28.15
2019-05-30T10:39:07.720Z,30.21
2019-05-30T10:41:44.577Z,31.66
2019-05-30T10:44:15.886Z,31.06
2019-05-30T10:46:48.638Z,29.98
2019-05-30T10:49:33.650Z,28.32
2019-05-30T10:51:57.445Z,26.71
2019-05-30T10:54:25.651Z,31.60
2019-05-30T10:56:56.195Z,26.71
2019-05-30T10:59:27.019Z,28.98
2019-05-30T11:01:57.913Z,26.00
2019-05-30T11:04:28.347Z,26.06
2019-05-30T11:07:16.207Z,29.87
2019-05-30T11:09:54.805Z,28.15
2019-05-30T11:12:26.654Z,30.31
2019-05-30T11:15:01.269Z,30.61
2019-05-30T11:17:40.802Z,30.58
2019-05-30T11:20:13.808Z,30.49
2019-05-30T11:22:47.877Z,28.45
2019-05-30T11:25:22.302Z,26.96
2019-05-30T11:27:55.133Z,27.95
2019-05-30T11:30:25.815Z,29.65
2019-05-30T11:32:57.296Z,29.45
2019-05-30T11:35:31.531Z,26.79
2019-05-30T11:38:16.724Z,27.59
2019-05-30T11:40:53.382Z,29.05
2019-05-30T11:43:27.785Z,29.00
2019-05-30T11:45:58.338Z,28.46
2019-05-30T11:48:30.622Z,28.22
2019-05-30T11:51:08.393Z,29.84
2019-05-30T11:53:39.111Z,27.96
2019-05-30T11:56:12.835Z,28.18
2019-05-30T11:58:43.491Z,31.61
2019-05-30T12:01:14.233Z,30.45
2019-05-30T12:03:44.652Z,31.82
2019-05-30T12:06:20.688Z,29.19
2019-05-30T12:08:59.098Z,29.38
2019-05-30T12:11:35.705Z,30.56
2019-05-30T12:14:08.158Z,32.18
2019-05-30T12:16:38.986Z,30.09
2019-05-30T12:19:15.649Z,29.93
2019-05-30T12:21:46.136Z,29.97
2019-05-30T12:24:18.886Z,30.11
2019-05-30T12:26:49.581Z,30.90
2019-05-30T12:29:20.030Z,29.46
2019-05-30T12:31:56.028Z,30.72
2019-05-30T12:34:23.099Z,30.75
2019-05-30T12:36:54.333Z,30.57
2019-05-30T12:39:26.390Z,30.65
2019-05-30T12:42:03.419Z,31.79
2019-05-30T12:44:40.256Z,32.53
2019-05-30T12:47:13.226Z,33.36
2019-05-30T12:49:44.073Z,33.53
2019-05-30T12:52:16.060Z,33.45
2019-05-30T12:54:48.305Z,33.83
2019-05-30T12:57:18.941Z,34.51
2019-05-30T12:59:49.530Z,34.46
2019-05-30T13:02:23.095Z,33.65
2019-05-30T13:05:00.976Z,33.47
2019-05-30T13:07:33.196Z,32.25
2019-05-30T13:10:06.142Z,33.06
2019-05-30T13:12:43.111Z,32.54
2019-05-30T13:15:16.919Z,32.43
2019-05-30T13:17:47.559Z,32.78
2019-05-30T13:20:21.976Z,31.94
2019-05-30T13:22:53.080Z,31.78
2019-05-30T13:25:26.462Z,33.13
2019-05-30T13:27:57.731Z,33.31
2019-05-30T13:30:28.295Z,33.90
2019-05-30T13:32:59.018Z,34.63
2019-05-30T13:35:29.495Z,34.82
2019-05-30T13:38:05.398Z,35.24
2019-05-30T13:40:46.805Z,33.20
2019-05-30T13:43:17.303Z,33.09
2019-05-30T13:45:47.733Z,31.98
2019-05-30T13:48:18.300Z,32.17
2019-05-30T13:50:49.467Z,32.82
2019-05-30T13:53:20.672Z,32.13
2019-05-30T13:55:51.137Z,32.60
2019-05-30T13:58:22.106Z,32.72
2019-05-30T14:00:52.444Z,31.22
2019-05-30T14:03:23.079Z,30.17
2019-05-30T14:05:57.146Z,31.00
2019-05-30T14:08:41.139Z,31.47
2019-05-30T14:11:08.667Z,32.27
2019-05-30T14:13:39.289Z,30.63
2019-05-30T14:16:11.091Z,29.61
2019-05-30T14:18:44.106Z,30.62
2019-05-30T14:21:16.267Z,30.58
2019-05-30T14:23:47.698Z,30.21
2019-05-30T14:26:19.744Z,31.07
2019-05-30T14:28:50.128Z,29.73
2019-05-30T14:31:21.160Z,29.68
2019-05-30T14:33:55.768Z,31.01
2019-05-30T14:36:26.229Z,29.95
2019-05-30T14:39:06.843Z,29.97
2019-05-30T14:41:37.643Z,29.67
2019-05-30T14:44:12.154Z,29.92
2019-05-30T14:46:48.374Z,29.82
2019-05-30T14:49:19.181Z,29.88
2019-05-30T14:51:52.330Z,29.85
2019-05-30T14:54:23.085Z,31.11
2019-05-30T14:56:54.317Z,30.48
2019-05-30T14:59:27.424Z,31.52
2019-05-30T15:02:05.239Z,30.15
2019-05-30T15:04:36.162Z,29.56
2019-05-30T15:07:07.407Z,28.98
2019-05-30T15:09:43.108Z,29.47
2019-05-30T15:12:16.879Z,30.21
2019-05-30T15:14:49.255Z,29.37
2019-05-30T15:17:30.051Z,29.84
2019-05-30T15:20:00.431Z,29.66
2019-05-30T15:22:31.937Z,29.75
2019-05-30T15:25:05.660Z,28.99
2019-05-30T15:27:38.666Z,29.30
2019-05-30T15:30:12.724Z,30.13
2019-05-30T15:32:49.005Z,31.06
2019-05-30T15:35:21.908Z,31.05
2019-05-30T15:37:55.885Z,30.58
2019-05-30T15:40:32.178Z,30.97
2019-05-30T15:43:20.632Z,31.27
2019-05-30T15:45:52.142Z,30.48
2019-05-30T15:48:28.918Z,31.11
2019-05-30T15:51:03.195Z,30.79
2019-05-30T15:53:34.081Z,30.56
2019-05-30T15:56:04.522Z,29.99
2019-05-30T15:58:37.115Z,31.14
2019-05-30T16:01:07.784Z,32.59
2019-05-30T16:03:43.325Z,33.55
2019-05-30T16:06:14.942Z,35.25
2019-05-30T16:08:49.723Z,33.00
2019-05-30T16:11:26.599Z,33.67
2019-05-30T16:14:05.614Z,33.82
2019-05-30T16:16:47.705Z,35.84
2019-05-30T16:22:14.288Z,33.93
2019-05-30T16:24:48.617Z,34.03
2019-05-30T16:27:23.863Z,35.08
2019-05-30T16:29:55.354Z,35.07
2019-05-30T16:32:26.535Z,34.83
2019-05-30T16:38:16.027Z,34.61
2019-05-30T16:40:47.691Z,33.02
2019-05-30T16:43:18.954Z,33.98
2019-05-30T16:45:50.448Z,34.61
2019-05-30T16:48:22.933Z,34.46
2019-05-30T16:50:56.366Z,35.13
2019-05-30T16:53:30.457Z,34.83
2019-05-30T16:56:04.905Z,36.58
2019-05-30T16:58:39.467Z,36.06
2019-05-30T17:01:15.759Z,36.90
2019-05-30T17:03:49.021Z,38.34
2019-05-30T17:06:22.565Z,37.95
2019-05-30T17:08:55.125Z,40.37
2019-05-30T17:11:31.041Z,39.61
2019-05-30T17:14:07.100Z,38.72
2019-05-30T17:20:39.269Z,41.00
2019-05-30T17:23:10.257Z,40.48
2019-05-30T17:25:41.115Z,40.02
2019-05-30T17:28:16.169Z,42.85
2019-05-30T17:30:48.090Z,43.02
2019-05-30T17:33:36.986Z,41.96
2019-05-30T17:36:10.399Z,42.69
2019-05-30T17:38:43.437Z,41.86
2019-05-30T17:41:14.839Z,44.36
2019-05-30T17:43:47.715Z,44.09
2019-05-30T17:46:27.769Z,42.58
2019-05-30T17:48:58.670Z,42.65
2019-05-30T17:51:30.015Z,43.91
2019-05-30T17:54:02.328Z,43.34
2019-05-30T17:56:32.733Z,44.11
2019-05-30T17:59:05.850Z,43.96
2019-05-30T18:01:41.218Z,44.03
2019-05-30T18:04:15.702Z,43.83
2019-05-30T18:06:52.090Z,44.22
2019-05-30T18:09:23.024Z,44.55
2019-05-30T18:11:56.091Z,44.83
2019-05-30T18:14:27.181Z,45.15
2019-05-30T18:17:01.082Z,45.16
2019-05-30T18:19:38.203Z,45.49
2019-05-30T18:22:13.430Z,46.00
2019-05-30T18:24:47.096Z,47.16
2019-05-30T18:27:21.740Z,48.18
2019-05-30T18:29:52.197Z,49.36
2019-05-30T18:32:24.082Z,47.73
2019-05-30T18:34:57.365Z,47.11
2019-05-30T18:37:30.417Z,48.55
2019-05-30T18:40:16.778Z,52.16
2019-05-30T18:42:50.028Z,50.21
2019-05-30T18:45:24.961Z,50.53
2019-05-30T18:47:55.903Z,50.61
2019-05-30T18:50:35.704Z,52.38
2019-05-30T18:53:07.123Z,51.17
2019-05-30T18:55:39.012Z,51.47
2019-05-30T18:58:19.310Z,52.44
2019-05-30T19:00:50.239Z,52.00
2019-05-30T19:03:24.494Z,53.88
2019-05-30T19:05:59.973Z,53.48
2019-05-30T19:08:36.165Z,53.74
2019-05-30T19:11:08.247Z,57.06
2019-05-30T19:13:38.322Z,56.03
2019-05-30T19:16:14.833Z,55.33
2019-05-30T19:18:45.273Z,56.00
2019-05-30T19:21:22.503Z,55.18
2019-05-30T19:24:00.440Z,56.00
2019-05-30T19:26:43.163Z,55.91
2019-05-30T19:29:13.596Z,56.86
2019-05-30T19:31:43.986Z,58.04
2019-05-30T19:34:20.750Z,57.56
2019-05-30T19:36:55.193Z,56.43
2019-05-30T19:39:25.623Z,57.38
2019-05-30T19:41:57.613Z,57.22
2019-05-30T19:44:28.230Z,57.34
2019-05-30T19:47:02.764Z,58.25
2019-05-30T19:49:40.392Z,57.36
2019-05-30T19:52:18.610Z,58.69
2019-05-30T19:54:53.343Z,59.89
2019-05-30T19:57:29.384Z,59.92
2019-05-30T20:00:00.164Z,59.57
2019-05-30T20:02:31.897Z,59.85
2019-05-30T20:05:04.148Z,59.90
2019-05-30T20:07:35.163Z,60.17
2019-05-30T20:10:06.203Z,61.30
2019-05-30T20:12:38.950Z,60.79
2019-05-30T20:15:10.744Z,61.08
2019-05-30T20:17:41.864Z,60.14
2019-05-30T20:20:16.926Z,60.08
2019-05-30T20:22:47.371Z,62.05
2019-05-30T20:25:23.283Z,60.57
2019-05-30T20:27:54.248Z,61.94
2019-05-30T20:30:33.610Z,61.35
2019-05-30T20:33:07.106Z,61.74
2019-05-30T20:35:43.394Z,63.46
2019-05-30T20:38:22.969Z,63.75
2019-05-30T20:40:53.763Z,61.73
2019-05-30T20:43:24.574Z,63.36
2019-05-30T20:45:58.081Z,63.42
2019-05-30T20:48:29.255Z,62.46
2019-05-30T20:51:00.455Z,63.15
2019-05-30T20:53:30.868Z,62.31
2019-05-30T20:56:02.994Z,63.51
2019-05-30T20:58:40.027Z,63.24
2019-05-30T21:01:14.800Z,63.47
2019-05-30T21:03:45.897Z,64.22
2019-05-30T21:06:17.076Z,63.61
2019-05-30T21:09:08.089Z,63.03
2019-05-30T21:11:42.183Z,63.17
2019-05-30T21:14:27.225Z,63.15
2019-05-30T21:16:52.290Z,62.94
2019-05-30T21:19:22.787Z,64.40
2019-05-30T21:21:54.195Z,63.59
2019-05-30T21:24:25.084Z,63.46
2019-05-30T21:26:55.819Z,64.53
2019-05-30T21:29:27.747Z,64.49
2019-05-30T21:31:58.235Z,64.67
2019-05-30T21:34:31.938Z,64.07
2019-05-30T21:37:03.850Z,63.54
2019-05-30T21:39:34.499Z,64.36
2019-05-30T21:42:08.085Z,65.24
2019-05-30T21:44:38.626Z,64.53
2019-05-30T21:47:09.671Z,64.83
2019-05-30T21:49:40.888Z,66.04
2019-05-30T21:52:12.786Z,66.71
2019-05-30T21:54:43.817Z,66.09
2019-05-30T21:57:14.644Z,66.90
2019-05-30T21:59:48.910Z,66.10
2019-05-30T22:02:25.992Z,67.91
2019-05-30T22:04:57.955Z,65.38
2019-05-30T22:07:31.706Z,66.49
2019-05-30T22:10:02.277Z,66.35
2019-05-30T22:12:35.764Z,67.34
2019-05-30T22:15:08.104Z,66.52
2019-05-30T22:17:41.621Z,67.34
2019-05-30T22:20:12.645Z,66.39
2019-05-30T22:22:43.878Z,66.62
2019-05-30T22:25:17.244Z,67.93
2019-05-30T22:27:50.463Z,69.18
2019-05-30T22:30:21.165Z,68.10
2019-05-30T22:32:52.796Z,68.20
2019-05-30T22:35:23.863Z,68.07
2019-05-30T22:37:54.261Z,67.45
2019-05-30T22:40:24.734Z,68.21
2019-05-30T22:42:56.394Z,68.08
2019-05-30T22:45:27.275Z,69.01
2019-05-30T22:47:59.313Z,67.93
2019-05-30T22:50:30.775Z,67.60
2019-05-30T22:53:01.206Z,68.63
2019-05-30T22:55:31.616Z,68.83
2019-05-30T22:58:02.043Z,67.97
2019-05-30T23:00:33.398Z,69.60
2019-05-30T23:03:04.294Z,70.19
2019-05-30T23:05:35.015Z,69.29
2019-05-30T23:08:05.882Z,68.67
2019-05-30T23:10:36.537Z,68.56
2019-05-30T23:13:10.220Z,69.03
2019-05-30T23:15:42.002Z,68.65
2019-05-30T23:18:12.575Z,69.19
2019-05-30T23:20:44.105Z,69.04
2019-05-30T23:23:14.555Z,70.69
2019-05-30T23:25:45.255Z,71.10
2019-05-30T23:28:15.867Z,70.99
2019-05-30T23:30:49.821Z,71.66
2019-05-30T23:33:21.178Z,71.67
2019-05-30T23:35:52.306Z,72.32
2019-05-30T23:38:23.064Z,72.55
2019-05-30T23:40:53.571Z,73.33
2019-05-30T23:43:27.769Z,73.70
2019-05-30T23:46:02.041Z,73.75
2019-05-30T23:48:32.157Z,74.73
2019-05-30T23:51:02.734Z,73.59
2019-05-30T23:53:33.110Z,74.08
2019-05-30T23:56:03.628Z,73.64
2019-05-30T23:58:35.952Z,72.30
